Time;durP1;ratioP1;P1;durP2;ratioP2;P2;SDS_P1;SDS_P2;PMS_P1;PMS_P2;Temp;Humidity;BMP_temperature;BMP_pressure;BME280_temperature;BME280_humidity;BME280_pressure;Samples;Min_cycle;Max_cycle;Signal;HPM_P1;HPM_P2
2022/11/30 00:04:43;;;;;;;110.37;40.50;;;0.40;99.90;;;;;;10375652;28;20065;-84
2022/11/30 00:09:44;;;;;;;96.93;34.70;;;0.50;99.90;;;;;;10374138;28;20535;-82
2022/11/30 00:14:45;;;;;;;81.27;31.43;;;0.50;99.90;;;;;;10372799;28;20041;-82
2022/11/30 00:19:45;;;;;;;81.07;30.77;;;0.50;99.90;;;;;;10366382;28;20032;-83
2022/11/30 00:24:46;;;;;;;83.70;31.47;;;0.50;99.90;;;;;;10368176;28;20044;-85
2022/11/30 00:29:46;;;;;;;95.77;33.80;;;0.50;99.90;;;;;;10386892;28;20045;-82
2022/11/30 00:34:47;;;;;;;82.47;31.27;;;0.50;99.90;;;;;;10370423;28;20061;-82
2022/11/30 00:39:47;;;;;;;79.47;31.23;;;0.50;99.90;;;;;;10374693;28;20040;-86
2022/11/30 00:44:48;;;;;;;75.63;30.53;;;0.50;99.90;;;;;;10374173;28;20505;-82
2022/11/30 00:49:48;;;;;;;78.17;29.63;;;0.60;99.90;;;;;;10379588;28;20124;-82
2022/11/30 00:54:49;;;;;;;77.33;28.67;;;0.50;99.90;;;;;;10362885;28;20121;-82
2022/11/30 00:59:49;;;;;;;116.80;41.00;;;0.50;99.90;;;;;;10374278;28;20029;-82
2022/11/30 01:04:50;;;;;;;106.10;40.13;;;0.60;99.90;;;;;;10378061;28;20393;-85
2022/11/30 01:09:50;;;;;;;110.53;42.40;;;0.50;99.90;;;;;;10382646;28;20033;-82
2022/11/30 01:14:51;;;;;;;115.20;41.73;;;0.50;99.90;;;;;;10368498;28;20564;-82
2022/11/30 01:19:51;;;;;;;101.90;37.33;;;0.50;99.90;;;;;;10404076;28;20029;-86
2022/11/30 01:24:52;;;;;;;85.57;31.50;;;0.60;99.90;;;;;;10408615;28;20378;-85
2022/11/30 01:29:52;;;;;;;94.67;34.00;;;0.40;99.90;;;;;;10423936;28;20480;-82
2022/11/30 01:34:53;;;;;;;89.33;34.07;;;0.40;99.90;;;;;;10405279;28;20100;-82
2022/11/30 01:39:53;;;;;;;92.03;35.90;;;0.30;99.90;;;;;;10409174;28;20044;-84
2022/11/30 01:45:01;;;;;;;90.17;33.53;;;0.30;99.90;;;;;;10410859;28;20064;-86
2022/11/30 01:50:09;;;;;;;90.07;32.20;;;0.20;99.90;;;;;;10437439;28;20063;-86
2022/11/30 01:55:20;;;;;;;86.43;32.10;;;0.20;99.90;;;;;;10444352;28;20167;-83
2022/11/30 02:00:21;;;;;;;89.27;34.53;;;0.20;99.90;;;;;;10407328;28;20041;-82
2022/11/30 02:05:24;;;;;;;88.13;32.83;;;0.20;99.90;;;;;;10423787;28;20759;-82
2022/11/30 02:10:28;;;;;;;87.57;35.77;;;0.20;99.90;;;;;;10407357;28;20084;-81
2022/11/30 02:15:34;;;;;;;103.63;41.57;;;0.20;99.90;;;;;;10406041;28;20388;-82
2022/11/30 02:20:51;;;;;;;89.30;35.77;;;0.30;99.90;;;;;;10428498;28;20091;-84
2022/11/30 02:26:22;;;;;;;93.40;36.63;;;0.20;99.90;;;;;;10447279;28;20029;-84
2022/11/30 02:31:28;;;;;;;85.40;34.00;;;0.20;99.90;;;;;;10386879;28;20046;-82
2022/11/30 02:36:30;;;;;;;88.78;34.17;;;0.20;99.90;;;;;;10394126;28;20053;-85
2022/11/30 02:41:39;;;;;;;83.77;32.63;;;0.10;99.90;;;;;;10383014;28;20064;-85
2022/11/30 02:46:40;;;;;;;81.43;31.63;;;0.10;99.90;;;;;;10377037;28;20466;-85
2022/11/30 02:51:41;;;;;;;81.13;32.10;;;0.10;99.90;;;;;;10365183;28;20038;-83
2022/11/30 02:56:42;;;;;;;82.37;30.87;;;0.00;99.90;;;;;;10387105;28;20052;-85
2022/11/30 03:01:42;;;;;;;82.80;32.70;;;0.10;99.90;;;;;;10386319;28;20045;-82
2022/11/30 03:06:43;;;;;;;90.73;36.10;;;0.10;99.90;;;;;;10376145;28;20041;-83
2022/11/30 03:11:43;;;;;;;100.03;39.37;;;0.10;99.90;;;;;;10378517;28;20389;-85
2022/11/30 03:16:44;;;;;;;88.93;34.40;;;0.10;99.90;;;;;;10369957;28;20041;-83
2022/11/30 03:21:44;;;;;;;95.03;36.13;;;0.10;99.90;;;;;;10362540;28;20084;-82
2022/11/30 03:26:45;;;;;;;89.90;35.20;;;0.10;99.90;;;;;;10381937;28;20034;-82
2022/11/30 03:31:45;;;;;;;83.17;34.10;;;0.10;99.90;;;;;;10385750;28;20056;-82
2022/11/30 03:36:46;;;;;;;76.03;31.40;;;0.10;99.90;;;;;;10380318;28;20049;-82
2022/11/30 03:41:46;;;;;;;85.93;32.07;;;0.10;99.90;;;;;;10369986;28;20574;-81
2022/11/30 03:46:47;;;;;;;81.07;32.60;;;0.10;99.90;;;;;;10376341;28;20037;-85
2022/11/30 03:51:48;;;;;;;77.77;31.03;;;0.00;99.90;;;;;;10374574;28;20034;-82
2022/11/30 03:56:48;;;;;;;81.50;34.10;;;0.00;99.90;;;;;;10362015;28;20760;-82
2022/11/30 04:01:49;;;;;;;86.47;37.33;;;0.10;99.90;;;;;;10366763;28;20033;-82
2022/11/30 04:06:49;;;;;;;83.60;34.50;;;0.10;99.90;;;;;;10386652;28;20037;-85
2022/11/30 04:11:50;;;;;;;97.57;37.97;;;0.10;99.90;;;;;;10361100;28;20025;-83
2022/11/30 04:16:50;;;;;;;93.33;36.30;;;0.10;99.90;;;;;;10384051;28;20042;-83
2022/11/30 04:21:51;;;;;;;84.57;34.17;;;0.10;99.90;;;;;;10368326;28;20060;-83
2022/11/30 04:26:51;;;;;;;72.70;29.60;;;0.10;99.90;;;;;;10373185;28;20026;-83
2022/11/30 04:31:52;;;;;;;79.07;30.97;;;0.10;99.90;;;;;;10389478;28;20136;-81
2022/11/30 04:36:53;;;;;;;70.33;28.93;;;0.10;99.90;;;;;;10362465;28;20105;-82
2022/11/30 04:41:53;;;;;;;66.13;28.20;;;0.10;99.90;;;;;;10375199;28;20430;-85
2022/11/30 04:46:54;;;;;;;90.53;38.53;;;0.10;99.90;;;;;;10379435;28;20030;-86
2022/11/30 04:51:55;;;;;;;101.80;47.23;;;0.10;99.90;;;;;;10369215;28;20029;-82
2022/11/30 04:56:55;;;;;;;84.70;37.40;;;0.10;99.90;;;;;;10397537;28;20489;-82
2022/11/30 05:01:56;;;;;;;89.17;38.03;;;0.10;99.90;;;;;;10385664;28;20066;-86
2022/11/30 05:06:56;;;;;;;101.43;42.03;;;0.10;99.90;;;;;;10392879;28;20616;-85
2022/11/30 05:11:57;;;;;;;107.03;40.43;;;0.10;99.90;;;;;;10395163;28;20042;-87
2022/11/30 05:16:58;;;;;;;151.93;64.73;;;0.00;99.90;;;;;;10385458;28;20038;-84
2022/11/30 05:21:58;;;;;;;287.03;111.30;;;0.00;99.90;;;;;;10388392;28;20386;-88
2022/11/30 05:26:59;;;;;;;172.57;69.57;;;0.00;99.90;;;;;;10387902;28;20034;-83
2022/11/30 05:32:00;;;;;;;121.43;49.43;;;0.00;99.90;;;;;;10369452;28;20108;-82
2022/11/30 05:37:01;;;;;;;80.33;32.97;;;0.00;99.90;;;;;;10365975;28;20046;-82
2022/11/30 05:42:01;;;;;;;118.30;47.87;;;0.00;99.90;;;;;;10366956;28;20030;-84
2022/11/30 05:47:02;;;;;;;138.40;56.37;;;0.00;99.90;;;;;;10365836;28;20844;-83
2022/11/30 05:52:02;;;;;;;118.40;49.73;;;0.00;99.90;;;;;;10367342;28;20026;-82
2022/11/30 05:57:04;;;;;;;95.60;39.07;;;0.00;99.90;;;;;;10404976;28;20063;-83
2022/11/30 06:02:04;;;;;;;103.37;41.50;;;-0.10;99.90;;;;;;10405311;28;20083;-85
2022/11/30 06:07:10;;;;;;;87.53;34.40;;;0.00;99.90;;;;;;10406474;28;20026;-83
2022/11/30 06:12:11;;;;;;;99.28;41.42;;;-0.10;99.90;;;;;;10406997;28;20116;-82
2022/11/30 06:17:11;;;;;;;87.33;36.13;;;-0.10;99.90;;;;;;10406002;28;20041;-85
2022/11/30 06:22:12;;;;;;;86.50;35.73;;;-0.20;99.90;;;;;;10405650;28;20025;-82
2022/11/30 06:27:12;;;;;;;83.07;31.77;;;-0.20;99.90;;;;;;10404584;28;20079;-86
2022/11/30 06:32:13;;;;;;;86.27;34.03;;;-0.30;99.90;;;;;;10406181;28;20432;-84
2022/11/30 06:37:13;;;;;;;78.13;33.40;;;-0.20;99.90;;;;;;10405309;28;20060;-82
2022/11/30 06:42:14;;;;;;;96.77;37.63;;;-0.20;99.90;;;;;;10405355;28;20036;-82
2022/11/30 06:47:14;;;;;;;99.83;39.50;;;-0.20;99.90;;;;;;10406057;28;20521;-82
2022/11/30 06:52:15;;;;;;;95.03;38.07;;;-0.10;99.90;;;;;;10404606;28;20041;-82
2022/11/30 06:57:16;;;;;;;85.57;33.57;;;0.00;99.90;;;;;;10404490;28;20038;-82
2022/11/30 07:02:17;;;;;;;80.43;34.73;;;0.00;99.90;;;;;;10404315;28;20029;-84
2022/11/30 07:07:17;;;;;;;74.60;29.73;;;0.00;99.90;;;;;;10403943;28;20040;-82
2022/11/30 07:12:18;;;;;;;79.00;31.37;;;-0.10;99.90;;;;;;10403991;28;20541;-85
2022/11/30 07:17:19;;;;;;;78.10;30.87;;;0.00;99.90;;;;;;10402891;28;20128;-82
2022/11/30 07:22:19;;;;;;;87.23;34.73;;;-0.10;99.90;;;;;;10403372;28;20029;-87
2022/11/30 07:27:20;;;;;;;90.47;37.77;;;0.00;99.90;;;;;;10401406;28;20033;-80
2022/11/30 07:32:20;;;;;;;92.77;38.93;;;0.00;99.90;;;;;;10402195;28;20105;-85
2022/11/30 07:37:21;;;;;;;100.97;43.73;;;0.00;99.90;;;;;;10402495;28;20710;-84
2022/11/30 07:42:21;;;;;;;92.30;36.57;;;0.00;99.90;;;;;;10402922;28;20033;-84
2022/11/30 07:47:22;;;;;;;89.97;38.40;;;0.00;99.90;;;;;;10402568;28;20033;-82
2022/11/30 07:52:23;;;;;;;65.07;28.30;;;0.00;99.90;;;;;;10402195;28;20037;-83
2022/11/30 07:57:23;;;;;;;73.53;30.70;;;0.00;99.90;;;;;;10400410;28;20033;-82
2022/11/30 08:02:24;;;;;;;74.43;32.83;;;0.00;99.90;;;;;;10402425;28;20029;-84
2022/11/30 08:07:24;;;;;;;88.83;37.47;;;0.00;99.90;;;;;;10402566;28;20045;-82
2022/11/30 08:12:25;;;;;;;85.87;34.43;;;0.00;99.90;;;;;;10402202;28;20045;-86
2022/11/30 08:17:25;;;;;;;82.43;32.47;;;0.10;99.90;;;;;;10401153;28;20037;-82
2022/11/30 08:22:26;;;;;;;90.73;36.40;;;0.10;99.90;;;;;;10401622;28;20139;-82
2022/11/30 08:27:26;;;;;;;88.83;34.77;;;0.20;99.90;;;;;;10399380;28;20029;-83
2022/11/30 08:32:27;;;;;;;90.97;35.73;;;0.20;99.90;;;;;;10369984;28;20708;-82
2022/11/30 08:37:27;;;;;;;93.90;38.10;;;0.20;99.90;;;;;;10393278;28;20026;-84
2022/11/30 08:42:28;;;;;;;111.03;48.17;;;0.20;99.90;;;;;;10361563;28;20030;-83
2022/11/30 08:47:29;;;;;;;93.57;40.47;;;0.30;99.90;;;;;;10373812;28;20080;-85
2022/11/30 08:52:29;;;;;;;91.77;39.83;;;0.40;99.90;;;;;;10359730;28;20076;-84
2022/11/30 08:57:30;;;;;;;111.43;49.17;;;0.40;99.90;;;;;;10359351;28;20657;-82
2022/11/30 09:02:30;;;;;;;148.27;65.60;;;0.40;99.90;;;;;;10358326;28;20105;-82
2022/11/30 09:07:31;;;;;;;96.70;44.73;;;0.50;99.90;;;;;;10358914;28;20026;-83
2022/11/30 09:12:36;;;;;;;72.30;33.30;;;0.50;99.90;;;;;;10359764;28;20018;-82
2022/11/30 09:17:37;;;;;;;58.63;26.13;;;0.50;99.90;;;;;;10360726;28;20034;-82
2022/11/30 09:22:37;;;;;;;91.57;38.17;;;0.50;99.90;;;;;;10359227;28;20037;-82
2022/11/30 09:27:38;;;;;;;70.27;31.97;;;0.60;99.90;;;;;;10359595;28;20041;-83
2022/11/30 09:32:38;;;;;;;69.60;28.73;;;0.70;99.90;;;;;;10359699;28;20042;-85
2022/11/30 09:37:39;;;;;;;80.03;33.80;;;0.60;99.90;;;;;;10359308;28;20531;-84
2022/11/30 09:42:51;;;;;;;74.93;32.63;;;0.70;99.90;;;;;;10363842;28;20026;-83
2022/11/30 09:48:04;;;;;;;77.03;36.83;;;0.70;99.90;;;;;;10365122;28;20030;-82
2022/11/30 09:53:34;;;;;;;90.30;42.10;;;0.90;99.90;;;;;;10366311;28;20058;-83
2022/11/30 09:58:50;;;;;;;70.63;29.67;;;1.00;99.90;;;;;;10365173;28;20050;-84
2022/11/30 10:03:50;;;;;;;111.00;60.23;;;1.10;99.90;;;;;;10394755;28;20523;-82
2022/11/30 10:09:24;;;;;;;87.30;38.40;;;1.20;99.90;;;;;;10379137;28;20036;-83
2022/11/30 10:14:36;;;;;;;88.83;38.87;;;1.30;99.90;;;;;;10371075;28;20390;-84
2022/11/30 10:19:55;;;;;;;54.97;25.03;;;1.40;99.90;;;;;;10371100;28;20109;-87
2022/11/30 10:25:13;;;;;;;58.70;26.83;;;1.30;99.90;;;;;;10364828;28;20081;-86
2022/11/30 10:30:21;;;;;;;52.63;24.80;;;1.10;99.90;;;;;;10365048;28;20034;-83
2022/11/30 10:35:40;;;;;;;52.17;24.60;;;1.00;99.90;;;;;;10377737;28;20094;-82
2022/11/30 10:41:01;;;;;;;65.60;28.50;;;1.00;99.90;;;;;;10364164;28;20038;-82
2022/11/30 10:46:03;;;;;;;58.97;27.03;;;1.00;99.90;;;;;;10362838;28;20152;-82
2022/11/30 10:51:04;;;;;;;63.13;27.80;;;1.20;99.90;;;;;;10363409;28;20041;-82
2022/11/30 10:56:12;;;;;;;72.10;30.93;;;1.10;99.90;;;;;;10363345;28;20029;-82
2022/11/30 11:01:30;;;;;;;49.87;25.13;;;1.10;99.90;;;;;;10363438;28;20681;-82
2022/11/30 11:06:32;;;;;;;55.00;25.57;;;1.10;99.90;;;;;;10377224;28;20025;-87
2022/11/30 11:11:37;;;;;;;48.93;22.23;;;1.10;99.90;;;;;;10361563;28;20030;-82
2022/11/30 11:17:00;;;;;;;47.33;20.08;;;0.90;99.90;;;;;;10362796;28;20042;-84
2022/11/30 11:22:13;;;;;;;40.07;19.97;;;0.80;99.90;;;;;;10362725;28;20381;-85
2022/11/30 11:27:29;;;;;;;47.33;20.93;;;0.70;99.90;;;;;;10362664;28;20109;-82
2022/11/30 11:32:30;;;;;;;40.28;21.50;;;0.50;99.90;;;;;;10361555;28;20062;-82
2022/11/30 11:37:36;;;;;;;46.63;22.30;;;0.50;99.90;;;;;;10362092;28;20121;-82
2022/11/30 11:42:52;;;;;;;52.93;25.40;;;0.60;99.90;;;;;;10361369;28;20393;-87
2022/11/30 11:48:04;;;;;;;72.60;34.47;;;0.70;99.90;;;;;;10361310;28;20014;-85
2022/11/30 11:53:21;;;;;;;95.83;54.50;;;0.90;99.90;;;;;;10360836;28;20084;-83
2022/11/30 11:58:35;;;;;;;379.87;195.57;;;0.90;99.90;;;;;;10368971;28;20036;-86
2022/11/30 12:04:02;;;;;;;227.53;98.87;;;0.80;99.90;;;;;;10362729;28;20025;-83
2022/11/30 12:09:12;;;;;;;398.37;265.63;;;0.70;99.90;;;;;;10374499;28;20137;-87
2022/11/30 12:14:15;;;;;;;56.70;26.53;;;0.50;99.90;;;;;;10360240;28;20052;-82
2022/11/30 12:19:26;;;;;;;102.23;56.87;;;0.50;99.90;;;;;;10360616;28;20034;-82
2022/11/30 12:24:41;;;;;;;73.37;37.23;;;0.50;99.90;;;;;;10360303;28;20546;-85
2022/11/30 12:29:45;;;;;;;99.50;55.40;;;0.50;99.90;;;;;;10360181;28;20029;-85
2022/11/30 12:35:04;;;;;;;96.97;50.53;;;0.50;99.90;;;;;;10360042;28;20115;-82
2022/11/30 12:40:28;;;;;;;65.20;30.97;;;0.50;99.90;;;;;;10360190;28;20381;-83
2022/11/30 12:45:41;;;;;;;68.07;32.57;;;0.50;99.90;;;;;;10376161;28;20107;-85
2022/11/30 12:50:58;;;;;;;110.63;52.53;;;0.50;99.90;;;;;;10373565;28;20070;-86
2022/11/30 12:56:17;;;;;;;343.90;196.40;;;0.50;99.90;;;;;;10373606;28;20152;-82
2022/11/30 13:01:54;;;;;;;218.23;125.53;;;0.50;99.90;;;;;;10387414;28;20037;-83
2022/11/30 13:06:54;;;;;;;106.33;60.97;;;0.50;99.90;;;;;;10387442;28;20056;-82
2022/11/30 13:12:00;;;;;;;70.97;38.87;;;0.40;99.90;;;;;;10385133;28;20525;-83
2022/11/30 13:17:02;;;;;;;;;;;0.30;99.90;;;;;;10393174;28;20052;-85
2022/11/30 13:22:10;;;;;;;81.10;35.10;;;0.30;99.90;;;;;;10385568;28;20423;-83
2022/11/30 13:27:23;;;;;;;182.57;69.53;;;0.30;99.90;;;;;;10367802;28;20052;-83
2022/11/30 13:32:24;;;;;;;204.90;66.40;;;0.30;99.90;;;;;;10381240;28;20033;-82
2022/11/30 13:37:27;;;;;;;92.63;38.67;;;0.30;99.90;;;;;;10371372;28;20502;-82
2022/11/30 13:42:33;;;;;;;186.87;66.00;;;0.20;99.90;;;;;;10379412;28;20037;-82
2022/11/30 13:47:34;;;;;;;58.67;25.83;;;0.10;99.90;;;;;;10391790;28;20030;-81
2022/11/30 13:52:57;;;;;;;91.53;35.67;;;0.00;99.90;;;;;;10368824;28;20033;-83
2022/11/30 13:57:57;;;;;;;69.07;31.00;;;0.00;99.90;;;;;;10365942;28;20029;-86
2022/11/30 14:03:16;;;;;;;73.27;29.03;;;0.00;99.90;;;;;;10366376;28;20026;-88
2022/11/30 14:08:30;;;;;;;96.00;42.93;;;0.00;99.90;;;;;;10389025;28;20116;-83
2022/11/30 14:13:31;;;;;;;130.23;52.00;;;0.00;99.90;;;;;;10370329;28;20507;-82
2022/11/30 14:18:42;;;;;;;108.80;45.50;;;0.10;99.90;;;;;;10372588;28;20030;-82
2022/11/30 14:23:55;;;;;;;148.57;68.73;;;0.10;99.90;;;;;;10390866;28;20494;-83
2022/11/30 14:29:23;;;;;;;137.07;68.47;;;0.10;99.90;;;;;;10367619;28;20116;-84
2022/11/30 14:34:34;;;;;;;93.80;43.40;;;0.20;99.90;;;;;;10367257;28;20061;-82
2022/11/30 14:39:40;;;;;;;74.77;32.70;;;0.20;99.90;;;;;;10379123;28;20083;-85
2022/11/30 14:44:41;;;;;;;75.57;33.13;;;0.10;99.90;;;;;;10377911;28;20547;-82
2022/11/30 14:49:46;;;;;;;69.97;29.90;;;0.10;99.90;;;;;;10389575;28;20038;-81
2022/11/30 14:55:11;;;;;;;60.50;27.00;;;0.10;99.90;;;;;;10383312;28;20038;-84
2022/11/30 15:00:17;;;;;;;64.43;27.00;;;0.10;99.90;;;;;;10365400;28;20026;-88
2022/11/30 15:05:25;;;;;;;60.50;26.17;;;-0.10;99.90;;;;;;10384760;28;20441;-82
2022/11/30 15:10:31;;;;;;;72.87;32.97;;;-0.20;99.90;;;;;;10387590;28;20045;-82
2022/11/30 15:15:31;;;;;;;58.70;27.70;;;-0.20;99.90;;;;;;10393307;28;20034;-81
2022/11/30 15:20:46;;;;;;;120.93;64.90;;;-0.10;99.90;;;;;;10384687;28;20857;-81
2022/11/30 15:25:50;;;;;;;75.40;35.27;;;-0.20;99.90;;;;;;10373384;28;20033;-83
2022/11/30 15:30:56;;;;;;;79.87;38.07;;;-0.10;99.90;;;;;;10392025;28;20017;-85
2022/11/30 15:35:58;;;;;;;65.03;31.17;;;-0.10;99.90;;;;;;10385743;28;20082;-85
2022/11/30 15:41:07;;;;;;;171.37;95.77;;;0.00;99.90;;;;;;10361827;28;20437;-82
2022/11/30 15:46:27;;;;;;;77.90;38.80;;;0.00;99.90;;;;;;10367794;28;20570;-83
2022/11/30 15:51:36;;;;;;;80.53;40.37;;;0.00;99.90;;;;;;10382764;28;20037;-83
2022/11/30 15:56:37;;;;;;;77.57;41.10;;;0.00;99.90;;;;;;10388394;28;20123;-83
2022/11/30 16:02:07;;;;;;;68.63;32.80;;;0.00;99.90;;;;;;10382663;28;20477;-84
2022/11/30 16:07:16;;;;;;;101.67;57.13;;;0.00;99.90;;;;;;10385899;28;20588;-83
2022/11/30 16:12:26;;;;;;;93.10;50.20;;;0.00;99.90;;;;;;10363289;28;20109;-87
2022/11/30 16:17:29;;;;;;;65.97;32.67;;;-0.10;99.90;;;;;;10366652;28;20042;-84
2022/11/30 16:22:29;;;;;;;97.30;42.03;;;0.00;99.90;;;;;;10376662;28;20036;-85
2022/11/30 16:27:30;;;;;;;104.23;46.60;;;0.00;99.90;;;;;;10360556;28;20048;-82
2022/11/30 16:32:30;;;;;;;142.43;68.53;;;0.10;99.90;;;;;;10360939;28;20056;-86
2022/11/30 16:37:31;;;;;;;84.13;38.70;;;0.10;99.90;;;;;;10375261;28;20585;-83
2022/11/30 16:42:31;;;;;;;95.10;40.27;;;0.10;99.90;;;;;;10400341;28;20029;-84
2022/11/30 16:47:32;;;;;;;68.97;30.33;;;0.20;99.90;;;;;;10397022;28;20476;-84
2022/11/30 16:52:32;;;;;;;60.87;28.40;;;0.20;99.90;;;;;;10372884;28;20056;-83
2022/11/30 16:57:33;;;;;;;63.07;26.43;;;0.20;99.90;;;;;;10385531;28;20404;-83
2022/11/30 17:02:37;;;;;;;83.73;36.37;;;0.20;99.90;;;;;;10396825;28;20041;-84
2022/11/30 17:07:37;;;;;;;61.33;26.57;;;0.20;99.90;;;;;;10396096;28;20029;-83
2022/11/30 17:12:39;;;;;;;61.63;27.60;;;0.20;99.90;;;;;;10395498;28;20868;-83
2022/11/30 17:17:39;;;;;;;59.33;24.90;;;0.20;99.90;;;;;;10375776;28;20046;-83
2022/11/30 17:22:40;;;;;;;82.80;36.30;;;0.20;99.90;;;;;;10401950;28;20057;-84
2022/11/30 17:27:41;;;;;;;66.83;29.37;;;0.20;99.90;;;;;;10377679;28;20053;-82
2022/11/30 17:32:42;;;;;;;60.80;27.30;;;0.20;99.90;;;;;;10387741;28;20044;-86
2022/11/30 17:37:42;;;;;;;61.13;26.13;;;0.20;99.90;;;;;;10383696;28;20465;-83
2022/11/30 17:42:43;;;;;;;111.90;40.47;;;0.20;99.90;;;;;;10394275;28;20047;-83
2022/11/30 17:47:43;;;;;;;120.37;44.97;;;0.20;99.90;;;;;;10394881;28;20022;-82
2022/11/30 17:52:44;;;;;;;117.53;41.13;;;0.20;99.90;;;;;;10397992;28;20026;-84
2022/11/30 18:03:46;;;;;;;72.73;28.97;;;0.20;99.90;;;;;;10393606;28;20110;-87
2022/11/30 18:08:47;;;;;;;71.50;32.17;;;0.30;99.90;;;;;;10381170;28;20064;-83
2022/11/30 18:13:50;;;;;;;68.17;28.73;;;0.30;99.90;;;;;;10385006;28;20117;-88
2022/11/30 18:18:52;;;;;;;57.03;24.33;;;0.40;99.90;;;;;;10388019;28;20034;-88
2022/11/30 18:23:52;;;;;;;59.70;27.43;;;0.40;99.90;;;;;;10386215;28;20022;-84
2022/11/30 18:28:58;;;;;;;45.63;21.17;;;0.40;99.90;;;;;;10387564;28;20021;-82
2022/11/30 18:34:04;;;;;;;44.53;20.77;;;0.40;99.90;;;;;;10378849;28;20141;-85
2022/11/30 18:39:05;;;;;;;51.70;22.25;;;0.40;99.90;;;;;;10383446;28;20412;-82
2022/11/30 18:44:05;;;;;;;46.43;19.93;;;0.40;99.90;;;;;;10388236;28;20076;-82
2022/11/30 18:49:06;;;;;;;42.53;18.17;;;0.50;99.90;;;;;;10391716;28;20028;-81
2022/11/30 18:54:08;;;;;;;43.30;19.63;;;0.40;99.90;;;;;;10395542;28;20133;-83
2022/11/30 18:59:12;;;;;;;39.97;18.43;;;0.40;99.90;;;;;;10385797;28;20033;-82
2022/11/30 19:04:13;;;;;;;52.60;22.70;;;0.40;99.90;;;;;;10384188;28;20045;-83
2022/11/30 19:09:14;;;;;;;54.00;23.03;;;0.50;99.90;;;;;;10385636;28;20129;-81
2022/11/30 19:14:15;;;;;;;44.73;20.33;;;0.50;99.90;;;;;;10393405;28;20041;-85
2022/11/30 19:19:16;;;;;;;64.73;29.40;;;0.50;99.90;;;;;;10387899;28;20041;-80
2022/11/30 19:24:16;;;;;;;47.23;20.60;;;0.60;99.90;;;;;;10390372;28;20297;-80
2022/11/30 19:29:17;;;;;;;46.20;22.00;;;0.60;99.90;;;;;;10389395;28;20050;-83
2022/11/30 19:34:18;;;;;;;49.47;22.83;;;0.60;99.90;;;;;;10384132;28;20137;-81
2022/11/30 19:39:18;;;;;;;48.57;22.90;;;0.60;99.90;;;;;;10382347;28;20026;-84
2022/11/30 19:44:19;;;;;;;54.03;23.70;;;0.70;99.90;;;;;;10390727;28;20044;-81
2022/11/30 19:49:19;;;;;;;43.70;19.63;;;0.70;99.90;;;;;;10398129;28;20122;-82
2022/11/30 19:54:20;;;;;;;47.60;22.53;;;0.70;99.90;;;;;;10401590;28;20048;-82
2022/11/30 19:59:20;;;;;;;51.13;23.50;;;0.80;99.90;;;;;;10401199;28;20393;-82
2022/11/30 20:04:22;;;;;;;46.03;22.20;;;0.80;99.90;;;;;;10402035;28;20071;-85
2022/11/30 20:09:23;;;;;;;45.67;20.70;;;0.80;99.90;;;;;;10400341;28;20036;-82
2022/11/30 20:14:23;;;;;;;46.17;22.87;;;0.80;99.90;;;;;;10400554;28;20053;-82
2022/11/30 20:19:24;;;;;;;46.63;21.67;;;0.90;99.90;;;;;;10367523;28;20022;-82
2022/11/30 20:24:25;;;;;;;49.23;22.30;;;0.90;99.90;;;;;;10365633;28;20030;-83
2022/11/30 20:29:25;;;;;;;49.10;22.13;;;0.90;99.90;;;;;;10366861;28;20037;-84
2022/11/30 20:34:26;;;;;;;39.10;18.53;;;0.90;99.90;;;;;;10385424;28;20045;-85
2022/11/30 20:39:27;;;;;;;44.27;20.63;;;0.90;99.90;;;;;;10379275;28;20512;-83
2022/11/30 20:44:28;;;;;;;41.87;20.27;;;0.90;99.90;;;;;;10362630;28;20033;-82
2022/11/30 20:49:29;;;;;;;48.43;22.67;;;0.90;99.90;;;;;;10382466;28;20026;-83
2022/11/30 20:54:30;;;;;;;43.77;21.23;;;0.90;99.90;;;;;;10389431;28;20481;-88
2022/11/30 20:59:31;;;;;;;52.93;23.67;;;1.00;99.90;;;;;;10376600;28;20025;-89
2022/11/30 21:04:31;;;;;;;46.90;21.90;;;1.00;99.90;;;;;;10384934;28;20026;-85
2022/11/30 21:09:32;;;;;;;44.07;19.87;;;1.00;99.90;;;;;;10392150;28;20030;-82
2022/11/30 21:14:32;;;;;;;40.17;20.27;;;1.10;99.90;;;;;;10381601;28;20046;-86
2022/11/30 21:19:33;;;;;;;50.90;23.17;;;1.10;99.90;;;;;;10384795;28;20038;-85
2022/11/30 21:24:33;;;;;;;52.73;23.73;;;1.00;99.90;;;;;;10381457;28;20477;-82
2022/11/30 21:29:34;;;;;;;45.20;19.80;;;1.10;99.90;;;;;;10381163;28;20038;-83
2022/11/30 21:34:35;;;;;;;47.23;21.20;;;1.00;99.90;;;;;;10373169;28;20050;-85
2022/11/30 21:39:35;;;;;;;40.07;20.70;;;1.00;99.90;;;;;;10365484;28;20386;-86
2022/11/30 21:44:36;;;;;;;39.40;18.70;;;1.00;99.90;;;;;;10383197;28;20531;-83
2022/11/30 21:49:36;;;;;;;44.70;22.13;;;1.00;99.90;;;;;;10394335;28;20037;-82
2022/11/30 21:54:37;;;;;;;49.83;23.37;;;1.00;99.90;;;;;;10371829;28;20521;-83
2022/11/30 21:59:37;;;;;;;72.83;33.30;;;1.00;99.90;;;;;;10368485;28;20042;-83
2022/11/30 22:04:38;;;;;;;74.87;31.47;;;1.10;99.90;;;;;;10377108;28;20034;-82
2022/11/30 22:09:39;;;;;;;96.33;42.60;;;1.10;99.90;;;;;;10381567;28;20044;-82
2022/11/30 22:14:39;;;;;;;113.63;51.20;;;1.10;99.90;;;;;;10374844;28;20101;-82
2022/11/30 22:19:40;;;;;;;74.83;31.80;;;1.10;99.90;;;;;;10391640;28;20044;-83
2022/11/30 22:24:40;;;;;;;67.13;30.73;;;1.10;99.90;;;;;;10373457;28;20034;-83
2022/11/30 22:29:41;;;;;;;78.47;32.43;;;1.20;99.90;;;;;;10365963;28;20034;-82
2022/11/30 22:34:41;;;;;;;68.93;30.30;;;1.20;99.90;;;;;;10371273;28;20059;-84
2022/11/30 22:39:42;;;;;;;66.60;29.30;;;1.20;99.90;;;;;;10378910;28;20646;-82
2022/11/30 22:44:42;;;;;;;57.87;27.73;;;1.30;99.90;;;;;;10377131;28;20032;-83
2022/11/30 22:49:43;;;;;;;64.43;28.67;;;1.20;99.90;;;;;;10370550;28;20868;-83
2022/11/30 22:54:43;;;;;;;59.13;26.03;;;1.30;99.90;;;;;;10389873;28;20120;-86
2022/11/30 22:59:44;;;;;;;58.33;24.97;;;1.30;99.90;;;;;;10375052;28;20095;-86
2022/11/30 23:04:44;;;;;;;67.20;29.23;;;1.30;99.90;;;;;;10382262;28;20107;-83
2022/11/30 23:09:45;;;;;;;57.30;25.70;;;1.30;99.90;;;;;;10380475;28;20037;-82
2022/11/30 23:14:45;;;;;;;48.47;23.13;;;1.30;99.90;;;;;;10369879;28;20038;-84
2022/11/30 23:19:46;;;;;;;46.73;20.90;;;1.30;99.90;;;;;;10377031;28;20033;-88
2022/11/30 23:24:47;;;;;;;46.33;22.37;;;1.40;99.90;;;;;;10368772;28;20034;-82
2022/11/30 23:29:48;;;;;;;49.03;22.17;;;1.40;99.90;;;;;;10366640;28;20050;-88
2022/11/30 23:34:48;;;;;;;50.60;22.83;;;1.40;99.90;;;;;;10375297;28;20054;-83
2022/11/30 23:39:49;;;;;;;50.83;23.93;;;1.40;99.90;;;;;;10366040;28;20030;-85
2022/11/30 23:44:56;;;;;;;45.50;22.90;;;1.40;99.90;;;;;;10390110;28;20476;-83
2022/11/30 23:49:56;;;;;;;53.27;23.80;;;1.40;99.90;;;;;;10362064;28;20053;-86
2022/11/30 23:54:57;;;;;;;60.77;25.13;;;1.50;99.90;;;;;;10365034;28;20053;-82
2022/11/30 23:59:57;;;;;;;55.37;25.23;;;1.50;99.90;;;;;;10361473;28;20048;-83
